WetterOnline ( http://www.wetteronline.de )

Wetter aktuell Nittenau

Aktuelles Wetter: Waldmünchen (499m)

6-stündlich | Neueste Meldungen
Ortszeit Temperatur Wetter
Mi, 25.04. 14:00 19.5° C bewölkt
Mi, 25.04. 8:00 9.2° C wolkenlos
Mi, 25.04. 2:00 8.1° C wolkig
Di, 24.04. 20:00 15.8° C wolkig
Di, 24.04. 14:00 17.9° C wolkig
Di, 24.04. 8:00 12.2° C bewölkt
Di, 24.04. 2:00 12.3° C bedeckt
Mo, 23.04. 20:00 16.2° C wolkig
Ortszeit Temperatur Wetter
Mi, 25.04. 18:00 17.9° C bedeckt
Mi, 25.04. 17:40 18.0° C bewölkt
Mi, 25.04. 17:30 18.7° C wolkig
Mi, 25.04. 17:20 18.7° C wolkig
Mi, 25.04. 17:10 20.0° C bewölkt
Mi, 25.04. 17:00 19.0° C bedeckt
Mi, 25.04. 16:50 19.0° C bedeckt
Mi, 25.04. 16:30 19.0° C bedeckt
Mi, 25.04. 16:00 19.8° C bewölkt
Mi, 25.04. 15:30 19.9° C wolkig
Mi, 25.04. 15:00 21.0° C bewölkt
Ortszeit Relative Feuchte Sichtweite
Mi, 25.04. 14:00 50% 30 km
Mi, 25.04. 8:00 89% 10 km
Mi, 25.04. 2:00 96% 18 km
Di, 24.04. 20:00 57% 35 km
Di, 24.04. 14:00 50% 30 km
Di, 24.04. 8:00 86% 11 km
Di, 24.04. 2:00 92% 17 km
Mo, 23.04. 20:00 72% 35 km
Ortszeit Relative Feuchte Sichtweite
Mi, 25.04. 18:00 48% 35 km
Mi, 25.04. 17:40 47% -
Mi, 25.04. 17:30 46% 30 km
Mi, 25.04. 17:20 46% -
Mi, 25.04. 17:10 46% -
Mi, 25.04. 17:00 47% 30 km
Mi, 25.04. 16:50 47% -
Mi, 25.04. 16:30 51% 26 km
Mi, 25.04. 16:00 48% 35 km
Mi, 25.04. 15:30 45% 30 km
Mi, 25.04. 15:00 48% 23 km
Ortszeit Niederschlagsmenge Niederschlagsart
Mi, 25.04. 14:00 0.0 l/m2 in 6 Std. -
Mi, 25.04. 8:00 0.0 l/m2 in 12 Std. -
Mi, 25.04. 2:00 0.0 l/m2 in 6 Std. -
Di, 24.04. 20:00 0.0 l/m2 in 12 Std. -
Di, 24.04. 14:00 0.0 l/m2 in 6 Std. -
Di, 24.04. 8:00 0.0 l/m2 in 12 Std. -
Di, 24.04. 2:00 0.0 l/m2 in 6 Std. -
Mo, 23.04. 20:00 0.7 l/m2 in 12 Std. Regen
Ortszeit Niederschlagsmenge Niederschlagsart
Mi, 25.04. 18:00 0.0 l/m2 in 1 Std. -
Mi, 25.04. 17:40 keine Meldung -
Mi, 25.04. 17:30 0.0 l/m2 in 1 Std. -
Mi, 25.04. 17:20 keine Meldung -
Mi, 25.04. 17:10 keine Meldung -
Mi, 25.04. 17:00 0.0 l/m2 in 1 Std. Regen
Mi, 25.04. 16:50 keine Meldung -
Mi, 25.04. 16:30 0.0 l/m2 in 1 Std. -
Mi, 25.04. 16:00 0.0 l/m2 in 1 Std. -
Mi, 25.04. 15:30 0.0 l/m2 in 1 Std. -
Mi, 25.04. 15:00 0.1 l/m2 in 1 Std. Regen
Ortszeit Stärke Spitze Richtung
km/h Bft. km/h Grad Sektor
Mi, 25.04. 14:00 32 5 58 240° SW
Mi, 25.04. 8:00 4 1 11 60° NO
Mi, 25.04. 2:00 0 0 11 - -
Di, 24.04. 20:00 7 2 43 250° W
Di, 24.04. 14:00 26 4 44 250° W
Di, 24.04. 8:00 20 4 28 230° SW
Di, 24.04. 2:00 0 0 18 - -
Mo, 23.04. 20:00 13 3 61 240° SW
Ortszeit Stärke Spitze Richtung
km/h Bft. km/h Grad Sektor
Mi, 25.04. 18:00 28 4 57 270° W
Mi, 25.04. 17:40 35 5 - 280° W
Mi, 25.04. 17:30 39 6 56 280° W
Mi, 25.04. 17:20 39 6 - 280° W
Mi, 25.04. 17:10 32 5 - 260° W
Mi, 25.04. 17:00 26 4 43 260° W
Mi, 25.04. 16:50 26 4 - 260° W
Mi, 25.04. 16:30 28 4 41 280° W
Mi, 25.04. 16:00 26 4 48 270° W
Mi, 25.04. 15:30 31 5 48 270° W
Mi, 25.04. 15:00 30 5 46 280° W
Ortszeit Untergrenze Bedeckung Gattung
total tief tief mittel hoch
Mi, 25.04. 14:00 1500 m 7/8 7/8 - - -
Mi, 25.04. 8:00 - 0/8 0/8 - - -
Mi, 25.04. 2:00 1500 m 6/8 6/8 - - -
Di, 24.04. 20:00 6300 m 6/8 4/8 - - -
Di, 24.04. 14:00 1470 m 6/8 6/8 - - -
Di, 24.04. 8:00 390 m 7/8 8/8 - - -
Di, 24.04. 2:00 690 m 8/8 8/8 - - -
Mo, 23.04. 20:00 2100 m 8/8 1/8 - - -
Ortszeit Bedeckungsgrad in Achtel und Wolkenuntergrenze
Mi, 25.04. 18:00 7(2100m) 8(2400m)
Mi, 25.04. 17:40 6(2100m) 7(2700m)
Mi, 25.04. 17:30 2(1800m) 6(2400m) 7(2400m)
Mi, 25.04. 17:20 2(1800m) 6(2400m)
Mi, 25.04. 17:10 4(1800m) 7(2400m)
Mi, 25.04. 17:00 7(2100m) 8(2400m)
Mi, 25.04. 16:50 7(2100m) 8(2400m)
Mi, 25.04. 16:30 1(1500m) 8(2400m)
Mi, 25.04. 16:00 2(1800m) 4(2100m) 7(2700m)
Mi, 25.04. 15:30 3(1800m) 5(2400m) 7(3300m)
Mi, 25.04. 15:00 1(1500m) 7(2700m) 7(3300m)
Ortszeit Luftdruck NN (hPa) Tendenz (hPa in 3 Std.)
Mi, 25.04. 14:00 1010 - 1,4
Mi, 25.04. 8:00 1014 - 0,4
Mi, 25.04. 2:00 1015 - 1,0
Di, 24.04. 20:00 1015 - 1,0
Di, 24.04. 14:00 1017 - 0,8
Di, 24.04. 8:00 1019 + 0,6
Di, 24.04. 2:00 1018 + 0,9
Mo, 23.04. 20:00 1015 + 0,1
Ortszeit Luftdruck NN (hPa) Tendenz (hPa in 3 Std.)
Mi, 25.04. 18:00 1010 + 0,4
Mi, 25.04. 17:40 1010 keine Meldung
Mi, 25.04. 17:30 1010 - 0,1
Mi, 25.04. 17:20 1010 keine Meldung
Mi, 25.04. 17:10 1010 keine Meldung
Mi, 25.04. 17:00 1010 - 0,1
Mi, 25.04. 16:50 1010 keine Meldung
Mi, 25.04. 16:30 1009 - 0,4
Mi, 25.04. 16:00 1009 - 0,7
Mi, 25.04. 15:30 1009 - 0,8
Mi, 25.04. 15:00 1009 - 0,8
Ortszeit Schneehöhe (cm)
Mi, 25.04. 14:00 0
Mi, 25.04. 8:00 0
Mi, 25.04. 2:00 0
Di, 24.04. 20:00 0
Di, 24.04. 14:00 0
Di, 24.04. 8:00 0
Di, 24.04. 2:00 0
Mo, 23.04. 20:00 0
Ortszeit Schneehöhe (cm)
Mi, 25.04. 18:00 0
Mi, 25.04. 17:40 0
Mi, 25.04. 17:30 0
Mi, 25.04. 17:20 0
Mi, 25.04. 17:10 0
Mi, 25.04. 17:00 0
Mi, 25.04. 16:50 0
Mi, 25.04. 16:30 0
Mi, 25.04. 16:00 0
Mi, 25.04. 15:30 0
Mi, 25.04. 15:00 0
Link zu dieser Seite / Seite empfehlen

Das Wetter in ...